Mount Gilead, Ohio
Current Conditions -  °F | °C
As of 8:12 PM on Tuesday 21 Oct 2014 (Local Time) from KMNN Reporting Station
Overcast Overcast  
Wind Chill: 40°   Ceiling: 2900
Heat Index: 45°   Visibility: 9mi
Dew Point: 39°   Wind: 10mph
Humidity: 80%   Direction: 340°NNW
Pressure: 30.12"   Gusts: NA
Location:  40.55°N, 82.83°W
Report Text: KMNN 220012Z AUTO 34009KT 9SM OVC029 07/04 A3012 RMK AO2 T00720039 TSNO
Loading
Personal Weather Stations






























Interactive Weather Map
Tropical Storm Tracking
New forecast layout! Learn more

10-Day Weather Forecast

Advertisements
Track Severe Weather on mobile